createdAt,value
2022-12-31T00:02:22.222Z,13.10
2022-12-31T00:04:48.779Z,13.10
2022-12-31T00:07:15.225Z,13.20
2022-12-31T00:09:41.716Z,13.20
2022-12-31T00:12:08.191Z,13.10
2022-12-31T00:14:34.681Z,13.10
2022-12-31T00:17:01.180Z,13.20
2022-12-31T00:19:27.705Z,13.20
2022-12-31T00:21:54.177Z,13.20
2022-12-31T00:24:20.647Z,13.10
2022-12-31T00:26:47.123Z,13.10
2022-12-31T00:29:13.593Z,13.20
2022-12-31T00:31:40.073Z,13.20
2022-12-31T00:34:06.523Z,13.10
2022-12-31T00:36:32.999Z,13.20
2022-12-31T00:38:59.471Z,13.20
2022-12-31T00:41:25.950Z,13.10
2022-12-31T00:43:52.434Z,13.10
2022-12-31T00:46:18.976Z,13.10
2022-12-31T00:48:45.516Z,13.20
2022-12-31T00:51:11.995Z,13.20
2022-12-31T00:53:38.454Z,13.20
2022-12-31T00:56:04.924Z,13.20
2022-12-31T00:58:31.393Z,13.20
2022-12-31T01:00:57.936Z,13.20
2022-12-31T01:03:24.539Z,13.20
2022-12-31T01:05:51.091Z,13.20
2022-12-31T01:08:17.541Z,13.20
2022-12-31T01:10:44.035Z,13.20
2022-12-31T01:13:10.504Z,13.20
2022-12-31T01:15:37.023Z,13.20
2022-12-31T01:18:03.504Z,13.20
2022-12-31T01:20:30.021Z,13.20
2022-12-31T01:22:56.503Z,13.20
2022-12-31T01:25:22.990Z,13.20
2022-12-31T01:27:49.491Z,13.20
2022-12-31T01:30:15.960Z,13.20
2022-12-31T01:32:42.422Z,13.20
2022-12-31T01:35:08.909Z,13.20
2022-12-31T01:37:35.408Z,13.20
2022-12-31T01:40:01.885Z,13.20
2022-12-31T01:42:28.349Z,13.20
2022-12-31T01:44:54.836Z,13.20
2022-12-31T01:47:21.288Z,13.10
2022-12-31T01:49:47.755Z,13.10
2022-12-31T01:52:14.256Z,13.20
2022-12-31T01:54:40.763Z,13.20
2022-12-31T01:57:07.241Z,13.20
2022-12-31T01:59:33.715Z,13.20
2022-12-31T02:02:00.299Z,13.20
2022-12-31T02:04:26.846Z,13.30
2022-12-31T02:06:53.335Z,13.20
2022-12-31T02:09:19.797Z,13.30
2022-12-31T02:11:46.305Z,13.20
2022-12-31T02:14:12.789Z,13.20
2022-12-31T02:16:39.273Z,13.20
2022-12-31T02:19:05.746Z,13.20
2022-12-31T02:21:32.239Z,13.20
2022-12-31T02:23:58.872Z,13.20
2022-12-31T02:26:25.352Z,13.20
2022-12-31T02:28:51.818Z,13.20
2022-12-31T02:31:18.332Z,13.20
2022-12-31T02:33:44.858Z,13.20
2022-12-31T02:36:11.343Z,13.20
2022-12-31T02:38:37.828Z,13.20
2022-12-31T02:41:04.319Z,13.20
2022-12-31T02:43:30.790Z,13.20
2022-12-31T02:45:57.269Z,13.20
2022-12-31T02:48:23.753Z,13.20
2022-12-31T02:50:50.271Z,13.20
2022-12-31T02:53:16.751Z,13.20
2022-12-31T02:55:43.268Z,13.20
2022-12-31T02:58:09.731Z,13.30
2022-12-31T03:00:36.366Z,13.30
2022-12-31T03:03:02.911Z,13.20
2022-12-31T03:05:29.412Z,13.20
2022-12-31T03:07:55.906Z,13.20
2022-12-31T03:10:22.382Z,13.30
2022-12-31T03:12:48.991Z,13.30
2022-12-31T03:15:15.513Z,13.30
2022-12-31T03:17:41.981Z,13.30
2022-12-31T03:20:14.596Z,13.30
2022-12-31T03:22:41.052Z,13.30
2022-12-31T03:25:07.544Z,13.30
2022-12-31T03:27:34.041Z,13.30
2022-12-31T03:30:00.562Z,13.30
2022-12-31T03:32:27.044Z,13.30
2022-12-31T03:34:53.528Z,13.30
2022-12-31T03:37:19.999Z,13.30
2022-12-31T03:39:46.481Z,13.30
2022-12-31T03:42:12.983Z,13.30
2022-12-31T03:44:39.469Z,13.30
2022-12-31T03:47:05.950Z,13.40
2022-12-31T03:49:32.441Z,13.30
2022-12-31T03:51:58.914Z,13.40
2022-12-31T03:54:25.384Z,13.40
2022-12-31T03:56:58.247Z,13.30
2022-12-31T03:59:26.429Z,13.40
2022-12-31T04:01:53.013Z,13.40
2022-12-31T04:04:19.505Z,13.40
2022-12-31T04:06:45.992Z,13.40
2022-12-31T04:09:12.462Z,13.40
2022-12-31T04:11:38.942Z,13.40
2022-12-31T04:14:05.441Z,13.40
2022-12-31T04:16:31.956Z,13.40
2022-12-31T04:18:58.521Z,13.40
2022-12-31T04:21:27.741Z,13.40
2022-12-31T04:23:56.599Z,13.40
2022-12-31T04:26:23.067Z,13.50
2022-12-31T04:28:49.556Z,13.50
2022-12-31T04:31:16.055Z,13.50
2022-12-31T04:33:42.527Z,13.50
2022-12-31T04:36:08.997Z,13.50
2022-12-31T04:38:35.488Z,13.40
2022-12-31T04:41:01.967Z,13.50
2022-12-31T04:43:28.427Z,13.50
2022-12-31T04:45:54.945Z,13.50
2022-12-31T04:48:21.460Z,13.50
2022-12-31T04:50:47.921Z,13.40
2022-12-31T04:53:14.416Z,13.40
2022-12-31T04:55:40.899Z,13.50
2022-12-31T04:58:07.397Z,13.50
2022-12-31T05:00:33.865Z,13.50
2022-12-31T05:03:00.374Z,13.50
2022-12-31T05:05:26.863Z,13.50
2022-12-31T05:07:53.337Z,13.50
2022-12-31T05:10:19.806Z,13.50
2022-12-31T05:12:46.271Z,13.50
2022-12-31T05:15:12.759Z,13.50
2022-12-31T05:17:39.225Z,13.50
2022-12-31T05:20:05.703Z,13.50
2022-12-31T05:22:32.186Z,13.50
2022-12-31T05:24:58.671Z,13.50
2022-12-31T05:27:25.133Z,13.60
2022-12-31T05:29:51.612Z,13.60
2022-12-31T05:32:18.102Z,13.60
2022-12-31T05:34:44.565Z,13.60
2022-12-31T05:37:11.040Z,13.60
2022-12-31T05:39:37.498Z,13.60
2022-12-31T05:42:03.963Z,13.60
2022-12-31T05:44:30.462Z,13.60
2022-12-31T05:46:56.951Z,13.60
2022-12-31T05:49:23.415Z,13.60
2022-12-31T05:51:49.898Z,13.60
2022-12-31T05:54:16.369Z,13.60
2022-12-31T05:56:43.025Z,13.60
2022-12-31T05:59:09.591Z,13.60
2022-12-31T06:01:36.108Z,13.60
2022-12-31T06:04:02.702Z,13.70
2022-12-31T06:06:29.249Z,13.70
2022-12-31T06:08:55.739Z,13.70
2022-12-31T06:11:22.218Z,13.60
2022-12-31T06:13:48.696Z,13.70
2022-12-31T06:16:15.229Z,13.70
2022-12-31T06:18:41.700Z,13.60
2022-12-31T06:21:08.196Z,13.70
2022-12-31T06:23:34.694Z,13.70
2022-12-31T06:26:01.456Z,13.70
2022-12-31T06:28:27.956Z,13.70
2022-12-31T06:30:54.465Z,13.70
2022-12-31T06:33:26.641Z,13.70
2022-12-31T06:35:53.142Z,13.80
2022-12-31T06:38:19.603Z,13.80
2022-12-31T06:40:46.094Z,13.70
2022-12-31T06:43:12.567Z,13.70
2022-12-31T06:45:39.048Z,13.70
2022-12-31T06:48:05.520Z,13.80
2022-12-31T06:50:32.021Z,13.70
2022-12-31T06:52:58.495Z,13.80
2022-12-31T06:55:24.955Z,13.70
2022-12-31T06:57:51.418Z,13.80
2022-12-31T07:00:17.898Z,13.80
2022-12-31T07:02:44.420Z,13.80
2022-12-31T07:05:10.970Z,13.80
2022-12-31T07:07:37.455Z,13.80
2022-12-31T07:10:03.936Z,13.80
2022-12-31T07:12:30.408Z,13.80
2022-12-31T07:14:56.883Z,13.80
2022-12-31T07:17:23.348Z,13.80
2022-12-31T07:19:55.485Z,13.80
2022-12-31T07:22:23.903Z,13.80
2022-12-31T07:24:50.365Z,13.80
2022-12-31T07:27:20.626Z,13.80
2022-12-31T07:29:47.121Z,13.80
2022-12-31T07:32:13.631Z,13.80
2022-12-31T07:34:40.127Z,13.80
2022-12-31T07:37:06.612Z,13.80
2022-12-31T07:39:33.099Z,13.80
2022-12-31T07:41:59.600Z,13.80
2022-12-31T07:44:26.085Z,13.80
2022-12-31T07:46:52.608Z,13.80
2022-12-31T07:49:19.088Z,13.80
2022-12-31T07:51:45.577Z,13.80
2022-12-31T07:54:14.217Z,13.80
2022-12-31T07:56:40.965Z,13.80
2022-12-31T07:59:07.470Z,13.90
2022-12-31T08:01:34.191Z,13.80
2022-12-31T08:04:00.840Z,13.80
2022-12-31T08:06:27.339Z,13.80
2022-12-31T08:08:53.812Z,13.80
2022-12-31T08:11:20.303Z,13.80
2022-12-31T08:13:46.796Z,13.90
2022-12-31T08:16:13.340Z,13.90
2022-12-31T08:18:39.852Z,13.90
2022-12-31T08:21:06.326Z,13.90
2022-12-31T08:23:32.794Z,13.90
2022-12-31T08:25:59.270Z,13.90
2022-12-31T08:28:25.768Z,13.90
2022-12-31T08:30:52.250Z,13.90
2022-12-31T08:33:18.753Z,13.90
2022-12-31T08:35:45.217Z,13.90
2022-12-31T08:38:11.717Z,13.90
2022-12-31T08:40:38.220Z,13.90
2022-12-31T08:43:04.705Z,13.90
2022-12-31T08:45:31.230Z,13.90
2022-12-31T08:48:00.121Z,13.90
2022-12-31T08:50:26.866Z,13.90
2022-12-31T08:52:53.375Z,13.90
2022-12-31T08:55:19.854Z,13.90
2022-12-31T08:57:46.337Z,14.00
2022-12-31T09:00:12.812Z,13.90
2022-12-31T09:02:43.229Z,13.90
2022-12-31T09:05:12.745Z,13.90
2022-12-31T09:07:44.880Z,13.90
2022-12-31T09:10:11.361Z,13.90
2022-12-31T09:12:37.859Z,13.90
2022-12-31T09:15:04.330Z,14.00
2022-12-31T09:17:30.805Z,13.90
2022-12-31T09:19:57.284Z,14.00
2022-12-31T09:22:23.770Z,14.00
2022-12-31T09:24:50.244Z,14.00
2022-12-31T09:27:18.281Z,14.00
2022-12-31T09:29:46.552Z,14.00
2022-12-31T09:32:13.033Z,14.00
2022-12-31T09:34:39.501Z,14.00
2022-12-31T09:37:05.963Z,14.00
2022-12-31T09:39:32.438Z,14.00
2022-12-31T09:41:58.923Z,14.00
2022-12-31T09:44:25.406Z,14.00
2022-12-31T09:46:51.858Z,14.00
2022-12-31T09:49:18.319Z,14.00
2022-12-31T09:51:44.783Z,14.00
2022-12-31T09:54:11.267Z,14.00
2022-12-31T09:56:37.729Z,14.00
2022-12-31T09:59:04.210Z,14.00
2022-12-31T10:01:30.846Z,14.00
2022-12-31T10:03:57.487Z,14.00
2022-12-31T10:06:23.960Z,14.00
2022-12-31T10:08:50.439Z,14.00
2022-12-31T10:11:16.922Z,14.00
2022-12-31T10:13:43.435Z,14.00
2022-12-31T10:16:09.912Z,14.00
2022-12-31T10:18:36.386Z,14.10
2022-12-31T10:21:02.927Z,14.00
2022-12-31T10:23:29.407Z,14.10
2022-12-31T10:25:55.911Z,14.00
2022-12-31T10:28:26.939Z,14.00
2022-12-31T10:30:53.448Z,14.00
2022-12-31T10:33:19.978Z,14.10
2022-12-31T10:35:46.468Z,14.10
2022-12-31T10:38:12.932Z,14.10
2022-12-31T10:40:39.407Z,14.10
2022-12-31T10:43:05.887Z,14.10
2022-12-31T10:45:32.361Z,14.10
2022-12-31T10:47:58.824Z,14.10
2022-12-31T10:50:25.287Z,14.10
2022-12-31T10:52:51.768Z,14.10
2022-12-31T10:55:18.244Z,14.10
2022-12-31T10:57:44.718Z,14.10
2022-12-31T11:00:11.211Z,14.10
2022-12-31T11:02:37.810Z,14.10
2022-12-31T11:05:04.417Z,14.10
2022-12-31T11:07:30.920Z,14.10
2022-12-31T11:09:57.409Z,14.10
2022-12-31T11:12:23.898Z,14.10
2022-12-31T11:14:50.370Z,14.10
2022-12-31T11:17:16.853Z,14.00
2022-12-31T11:19:43.333Z,14.10
2022-12-31T11:22:09.824Z,14.10
2022-12-31T11:24:38.774Z,14.10
2022-12-31T11:27:05.305Z,14.10
2022-12-31T11:29:31.780Z,14.10
2022-12-31T11:31:58.275Z,14.10
2022-12-31T11:34:24.767Z,14.10
2022-12-31T11:36:51.247Z,14.10
2022-12-31T11:39:17.712Z,14.10
2022-12-31T11:41:44.189Z,14.10
2022-12-31T11:44:10.646Z,14.20
2022-12-31T11:46:37.172Z,14.10
2022-12-31T11:49:03.654Z,14.20
2022-12-31T11:51:30.132Z,14.10
2022-12-31T11:53:56.618Z,14.20
2022-12-31T11:56:23.097Z,14.20
2022-12-31T11:58:49.647Z,14.20
2022-12-31T12:01:16.118Z,14.20
2022-12-31T12:03:42.674Z,14.20
2022-12-31T12:06:09.151Z,14.20
2022-12-31T12:08:35.636Z,14.20
2022-12-31T12:11:02.116Z,14.20
2022-12-31T12:13:28.599Z,14.20
2022-12-31T12:15:55.132Z,14.20
2022-12-31T12:18:21.638Z,14.20
2022-12-31T12:20:48.115Z,14.20
2022-12-31T12:23:14.600Z,14.20
2022-12-31T12:25:41.090Z,14.20
2022-12-31T12:28:07.553Z,14.20
2022-12-31T12:30:38.867Z,14.20
2022-12-31T12:33:05.351Z,14.20
2022-12-31T12:35:31.853Z,14.20
2022-12-31T12:37:58.317Z,14.20
2022-12-31T12:40:31.470Z,14.20
2022-12-31T12:42:59.757Z,14.20
2022-12-31T12:45:26.233Z,14.20
2022-12-31T12:47:52.690Z,14.20
2022-12-31T12:50:19.162Z,14.20
2022-12-31T12:52:45.643Z,14.20
2022-12-31T12:55:12.136Z,14.20
2022-12-31T12:57:38.658Z,14.20
2022-12-31T13:00:05.124Z,14.20
2022-12-31T13:02:31.651Z,14.20
2022-12-31T13:04:58.196Z,14.20
2022-12-31T13:07:24.695Z,14.20
2022-12-31T13:09:51.188Z,14.20
2022-12-31T13:12:17.676Z,14.20
2022-12-31T13:14:44.161Z,14.20
2022-12-31T13:17:10.655Z,14.20
2022-12-31T13:19:37.154Z,14.20
2022-12-31T13:22:03.643Z,14.20
2022-12-31T13:24:30.168Z,14.20
2022-12-31T13:26:56.640Z,14.20
2022-12-31T13:29:23.130Z,14.20
2022-12-31T13:31:50.948Z,14.20
2022-12-31T13:34:17.454Z,14.20
2022-12-31T13:36:43.930Z,14.20
2022-12-31T13:39:10.405Z,14.30
2022-12-31T13:41:38.940Z,14.20
2022-12-31T13:44:05.426Z,14.20
2022-12-31T13:46:31.912Z,14.20
2022-12-31T13:48:58.387Z,14.30
2022-12-31T13:51:24.841Z,14.30
2022-12-31T13:53:51.315Z,14.20
2022-12-31T13:56:17.808Z,14.30
2022-12-31T13:58:44.295Z,14.30
2022-12-31T14:01:10.924Z,14.20
2022-12-31T14:03:37.459Z,14.20
2022-12-31T14:06:03.966Z,14.30
2022-12-31T14:08:30.424Z,14.20
2022-12-31T14:10:56.928Z,14.30
2022-12-31T14:13:23.878Z,14.30
2022-12-31T14:15:52.170Z,14.20
2022-12-31T14:18:18.656Z,14.20
2022-12-31T14:20:45.153Z,14.30
2022-12-31T14:23:11.615Z,14.30
2022-12-31T14:25:38.126Z,14.30
2022-12-31T14:28:04.587Z,14.30
2022-12-31T14:30:31.084Z,14.30
2022-12-31T14:32:57.564Z,14.30
2022-12-31T14:35:24.090Z,14.20
2022-12-31T14:37:50.590Z,14.30
2022-12-31T14:40:17.068Z,14.30
2022-12-31T14:42:43.543Z,14.30
2022-12-31T14:45:10.001Z,14.30
2022-12-31T14:47:36.491Z,14.30
2022-12-31T14:50:03.046Z,14.30
2022-12-31T14:52:29.610Z,14.30
2022-12-31T14:54:56.074Z,14.30
2022-12-31T14:57:22.546Z,14.30
2022-12-31T14:59:49.026Z,14.30
2022-12-31T15:02:15.619Z,14.30
2022-12-31T15:04:42.144Z,14.30
2022-12-31T15:07:08.638Z,14.30
2022-12-31T15:09:35.110Z,14.30
2022-12-31T15:12:01.597Z,14.30
2022-12-31T15:14:37.403Z,14.30
2022-12-31T15:17:04.508Z,14.30
2022-12-31T15:19:31.007Z,14.30
2022-12-31T15:21:57.498Z,14.30
2022-12-31T15:24:23.977Z,14.30
2022-12-31T15:26:50.447Z,14.30
2022-12-31T15:29:16.929Z,14.30
2022-12-31T15:31:43.428Z,14.30
2022-12-31T15:34:09.921Z,14.30
2022-12-31T15:36:36.414Z,14.30
2022-12-31T15:39:02.866Z,14.30
2022-12-31T15:41:29.357Z,14.30
2022-12-31T15:43:55.837Z,14.30
2022-12-31T15:46:22.486Z,14.30
2022-12-31T15:48:52.288Z,14.30
2022-12-31T15:51:19.444Z,14.30
2022-12-31T15:53:45.918Z,14.30
2022-12-31T15:56:12.395Z,14.30
2022-12-31T15:58:38.887Z,14.30
2022-12-31T16:01:05.386Z,14.30
2022-12-31T16:03:31.934Z,14.30
2022-12-31T16:05:58.431Z,14.30
2022-12-31T16:08:24.899Z,14.30
2022-12-31T16:10:51.376Z,14.30
2022-12-31T16:13:17.853Z,14.30
2022-12-31T16:15:45.036Z,14.30
2022-12-31T16:18:13.735Z,14.30
2022-12-31T16:20:43.670Z,14.30
2022-12-31T16:23:10.165Z,14.30
2022-12-31T16:25:36.631Z,14.30
2022-12-31T16:28:03.126Z,14.30
2022-12-31T16:30:29.598Z,14.30
2022-12-31T16:32:56.090Z,14.30
2022-12-31T16:35:23.893Z,14.30
2022-12-31T16:37:50.571Z,14.30
2022-12-31T16:40:17.060Z,14.40
2022-12-31T16:42:44.618Z,14.30
2022-12-31T16:45:15.238Z,14.30
2022-12-31T16:47:41.740Z,14.30
2022-12-31T16:50:08.216Z,14.30
2022-12-31T16:52:34.708Z,14.30
2022-12-31T16:55:01.197Z,14.30
2022-12-31T16:57:27.687Z,14.30
2022-12-31T16:59:54.260Z,14.30
2022-12-31T17:02:20.887Z,14.30
2022-12-31T17:04:55.136Z,14.30
2022-12-31T17:07:22.415Z,14.30
2022-12-31T17:09:51.104Z,14.30
2022-12-31T17:12:17.591Z,14.30
2022-12-31T17:14:44.074Z,14.30
2022-12-31T17:17:10.558Z,14.30
2022-12-31T17:19:37.050Z,14.30
2022-12-31T17:22:03.525Z,14.30
2022-12-31T17:24:30.005Z,14.30
2022-12-31T17:26:56.481Z,14.30
2022-12-31T17:29:26.413Z,14.30
2022-12-31T17:31:57.191Z,14.30
2022-12-31T17:34:23.671Z,14.30
2022-12-31T17:36:50.147Z,14.30
2022-12-31T17:39:16.665Z,14.30
2022-12-31T17:41:43.122Z,14.30
2022-12-31T17:44:09.603Z,14.30
2022-12-31T17:46:36.175Z,14.30
2022-12-31T17:49:02.698Z,14.30
2022-12-31T17:51:29.182Z,14.30
2022-12-31T17:53:55.714Z,14.30
2022-12-31T17:56:22.182Z,14.30
2022-12-31T17:58:48.689Z,14.30
2022-12-31T18:01:15.237Z,14.30
2022-12-31T18:03:41.867Z,14.30
2022-12-31T18:06:13.041Z,14.30
2022-12-31T18:08:42.952Z,14.30
2022-12-31T18:11:09.423Z,14.30
2022-12-31T18:13:35.901Z,14.30
2022-12-31T18:16:02.451Z,14.30
2022-12-31T18:18:28.967Z,14.30
2022-12-31T18:20:55.451Z,14.30
2022-12-31T18:23:21.941Z,14.30
2022-12-31T18:25:48.424Z,14.30
2022-12-31T18:28:14.887Z,14.30
2022-12-31T18:30:41.369Z,14.30
2022-12-31T18:33:07.961Z,14.30
2022-12-31T18:36:06.933Z,14.30
2022-12-31T18:38:20.868Z,14.30
2022-12-31T18:40:47.332Z,14.30
2022-12-31T18:43:13.816Z,14.30
2022-12-31T18:45:40.325Z,14.30
2022-12-31T18:48:06.802Z,14.30
2022-12-31T18:50:33.285Z,14.30
2022-12-31T18:53:00.849Z,14.30
2022-12-31T18:55:27.322Z,14.30
2022-12-31T18:57:53.805Z,14.30
2022-12-31T19:00:20.296Z,14.30
2022-12-31T19:02:51.277Z,14.30
2022-12-31T19:05:17.810Z,14.30
2022-12-31T19:07:44.273Z,14.30
2022-12-31T19:10:10.771Z,14.30
2022-12-31T19:12:37.250Z,14.30
2022-12-31T19:15:03.714Z,14.40
2022-12-31T19:17:30.192Z,14.30
2022-12-31T19:19:56.672Z,14.30
2022-12-31T19:22:23.170Z,14.30
2022-12-31T19:24:49.663Z,14.30
2022-12-31T19:27:16.156Z,14.30
2022-12-31T19:29:42.670Z,14.40
2022-12-31T19:32:09.219Z,14.40
2022-12-31T19:34:35.715Z,14.30
2022-12-31T19:37:02.214Z,14.30
2022-12-31T19:39:28.695Z,14.30
2022-12-31T19:41:59.207Z,14.30
2022-12-31T19:44:26.205Z,14.30
2022-12-31T19:46:52.667Z,14.40
2022-12-31T19:49:19.142Z,14.30
2022-12-31T19:51:45.617Z,14.30
2022-12-31T19:54:12.094Z,14.30
2022-12-31T19:56:38.546Z,14.30
2022-12-31T19:59:05.024Z,14.30
2022-12-31T20:01:31.569Z,14.30
2022-12-31T20:03:58.095Z,14.30
2022-12-31T20:06:24.578Z,14.30
2022-12-31T20:08:51.146Z,14.30
2022-12-31T20:11:17.652Z,14.30
2022-12-31T20:13:44.123Z,14.30
2022-12-31T20:16:10.749Z,14.30
2022-12-31T20:18:37.236Z,14.30
2022-12-31T20:21:03.726Z,14.30
2022-12-31T20:23:30.197Z,14.40
2022-12-31T20:25:56.689Z,14.30
2022-12-31T20:28:23.161Z,14.30
2022-12-31T20:30:49.779Z,14.30
2022-12-31T20:33:21.493Z,14.30
2022-12-31T20:35:47.990Z,14.30
2022-12-31T20:38:14.462Z,14.40
2022-12-31T20:40:46.518Z,14.40
2022-12-31T20:43:13.507Z,14.30
2022-12-31T20:45:40.139Z,14.30
2022-12-31T20:48:06.703Z,14.40
2022-12-31T20:50:33.251Z,14.40
2022-12-31T20:52:59.728Z,14.40
2022-12-31T20:55:26.225Z,14.30
2022-12-31T20:57:52.699Z,14.30
2022-12-31T21:00:19.164Z,14.30
2022-12-31T21:02:51.527Z,14.30
2022-12-31T21:05:23.205Z,14.30
2022-12-31T21:07:49.802Z,14.30
2022-12-31T21:10:16.280Z,14.30
2022-12-31T21:12:42.769Z,14.30
2022-12-31T21:15:09.239Z,14.30
2022-12-31T21:17:35.742Z,14.30
2022-12-31T21:20:02.221Z,14.30
2022-12-31T21:22:28.688Z,14.30
2022-12-31T21:24:55.164Z,14.30
2022-12-31T21:27:21.632Z,14.30
2022-12-31T21:30:17.235Z,14.30
2022-12-31T21:32:34.566Z,14.30
2022-12-31T21:35:40.313Z,14.30
2022-12-31T21:37:57.941Z,14.30
2022-12-31T21:40:26.786Z,14.20
2022-12-31T21:42:53.266Z,14.30
2022-12-31T21:45:19.745Z,14.30
2022-12-31T21:47:47.837Z,14.30
2022-12-31T21:50:14.476Z,14.30
2022-12-31T21:52:40.958Z,14.30
2022-12-31T21:55:07.421Z,14.20
2022-12-31T21:57:51.882Z,14.30
2022-12-31T22:00:43.975Z,14.30
2022-12-31T22:03:06.912Z,14.30
2022-12-31T22:05:33.435Z,14.20
2022-12-31T22:07:59.929Z,14.30
2022-12-31T22:10:26.436Z,14.30
2022-12-31T22:12:53.024Z,14.30
2022-12-31T22:15:19.518Z,14.30
2022-12-31T22:17:46.013Z,14.30
2022-12-31T22:20:28.737Z,14.30
2022-12-31T22:22:55.529Z,14.30
2022-12-31T22:25:21.992Z,14.30
2022-12-31T22:28:11.562Z,14.30
2022-12-31T22:30:34.912Z,14.30
2022-12-31T22:33:01.423Z,14.30
2022-12-31T22:35:27.919Z,14.30
2022-12-31T22:37:57.893Z,14.20
2022-12-31T22:40:25.585Z,14.20
2022-12-31T22:42:52.085Z,14.20
2022-12-31T22:45:18.560Z,14.20
2022-12-31T22:47:45.037Z,14.20
2022-12-31T22:50:11.522Z,14.30
2022-12-31T22:52:38.049Z,14.20
2022-12-31T22:55:04.527Z,14.30
2022-12-31T22:57:31.035Z,14.20
2022-12-31T22:59:57.490Z,14.20
2022-12-31T23:02:24.000Z,14.20
2022-12-31T23:04:50.472Z,14.30
2022-12-31T23:07:16.969Z,14.30
2022-12-31T23:09:43.449Z,14.30
2022-12-31T23:12:15.427Z,14.20
2022-12-31T23:14:41.906Z,14.30
2022-12-31T23:17:31.121Z,14.30
2022-12-31T23:19:54.800Z,14.20
2022-12-31T23:22:21.268Z,14.30
2022-12-31T23:24:47.736Z,14.30
2022-12-31T23:27:14.250Z,14.30
2022-12-31T23:29:46.782Z,14.30
2022-12-31T23:32:14.119Z,14.30
2022-12-31T23:34:40.595Z,14.30
2022-12-31T23:37:09.358Z,14.30
2022-12-31T23:39:35.881Z,14.30
2022-12-31T23:42:02.355Z,14.30
2022-12-31T23:44:28.841Z,14.30
2022-12-31T23:46:55.386Z,14.30
2022-12-31T23:49:21.929Z,14.20
2022-12-31T23:51:48.414Z,14.30
2022-12-31T23:54:14.926Z,14.30
2022-12-31T23:56:41.432Z,14.30
2022-12-31T23:59:08.044Z,14.30
